sensor_id;sensor_type;location;lat;lon;timestamp;pressure;altitude;pressure_sealevel;temperature;humidity
33697;BME280;20031;43.416;23.232;2024-03-07T00:02:14;99942.66;;;7.76;91.51
33697;BME280;20031;43.416;23.232;2024-03-07T00:04:43;99937.59;;;7.74;91.69
33697;BME280;20031;43.416;23.232;2024-03-07T00:07:08;99941.19;;;7.73;91.85
33697;BME280;20031;43.416;23.232;2024-03-07T00:09:34;99944.03;;;7.70;91.52
33697;BME280;20031;43.416;23.232;2024-03-07T00:12:04;99935.75;;;7.67;91.45
33697;BME280;20031;43.416;23.232;2024-03-07T00:14:33;99937.81;;;7.63;91.39
33697;BME280;20031;43.416;23.232;2024-03-07T00:17:00;99938.75;;;7.62;91.97
33697;BME280;20031;43.416;23.232;2024-03-07T00:19:26;99930.34;;;7.61;91.56
33697;BME280;20031;43.416;23.232;2024-03-07T00:21:57;99930.34;;;7.61;92.40
33697;BME280;20031;43.416;23.232;2024-03-07T00:24:23;99927.59;;;7.62;92.49
33697;BME280;20031;43.416;23.232;2024-03-07T00:26:49;99931.13;;;7.61;92.44
33697;BME280;20031;43.416;23.232;2024-03-07T00:29:16;99925.94;;;7.61;92.24
33697;BME280;20031;43.416;23.232;2024-03-07T00:31:45;99926.09;;;7.60;92.26
33697;BME280;20031;43.416;23.232;2024-03-07T00:34:14;99928.13;;;7.56;91.44
33697;BME280;20031;43.416;23.232;2024-03-07T00:36:44;99925.69;;;7.55;92.02
33697;BME280;20031;43.416;23.232;2024-03-07T00:39:10;99930.72;;;7.56;92.40
33697;BME280;20031;43.416;23.232;2024-03-07T00:41:40;99929.94;;;7.56;92.53
33697;BME280;20031;43.416;23.232;2024-03-07T00:44:07;99930.88;;;7.55;92.36
33697;BME280;20031;43.416;23.232;2024-03-07T00:46:34;99936.91;;;7.55;92.35
33697;BME280;20031;43.416;23.232;2024-03-07T00:49:00;99932.81;;;7.53;92.16
33697;BME280;20031;43.416;23.232;2024-03-07T00:51:25;99927.63;;;7.53;92.86
33697;BME280;20031;43.416;23.232;2024-03-07T00:53:51;99926.81;;;7.52;92.61
33697;BME280;20031;43.416;23.232;2024-03-07T00:56:16;99926.25;;;7.49;92.91
33697;BME280;20031;43.416;23.232;2024-03-07T00:58:42;99917.13;;;7.45;92.74
33697;BME280;20031;43.416;23.232;2024-03-07T01:01:07;99917.13;;;7.45;92.98
33697;BME280;20031;43.416;23.232;2024-03-07T01:03:33;99920.16;;;7.40;93.28
33697;BME280;20031;43.416;23.232;2024-03-07T01:05:59;99922.09;;;7.38;93.04
33697;BME280;20031;43.416;23.232;2024-03-07T01:08:24;99913.47;;;7.38;93.12
33697;BME280;20031;43.416;23.232;2024-03-07T01:10:50;99917.06;;;7.37;93.09
33697;BME280;20031;43.416;23.232;2024-03-07T01:13:15;99914.31;;;7.38;93.18
33697;BME280;20031;43.416;23.232;2024-03-07T01:15:47;99919.34;;;7.40;93.43
33697;BME280;20031;43.416;23.232;2024-03-07T01:18:14;99915.13;;;7.39;93.45
33697;BME280;20031;43.416;23.232;2024-03-07T01:20:39;99907.50;;;7.37;93.31
33697;BME280;20031;43.416;23.232;2024-03-07T01:23:05;99905.56;;;7.39;93.70
33697;BME280;20031;43.416;23.232;2024-03-07T01:25:30;99904.09;;;7.37;93.58
33697;BME280;20031;43.416;23.232;2024-03-07T01:27:59;99907.50;;;7.37;93.61
33697;BME280;20031;43.416;23.232;2024-03-07T01:30:25;99896.34;;;7.37;93.67
33697;BME280;20031;43.416;23.232;2024-03-07T01:32:56;99900.53;;;7.38;93.77
33697;BME280;20031;43.416;23.232;2024-03-07T01:35:21;99898.91;;;7.37;93.55
33697;BME280;20031;43.416;23.232;2024-03-07T01:37:47;99900.81;;;7.35;93.63
33697;BME280;20031;43.416;23.232;2024-03-07T01:40:12;99906.00;;;7.35;94.26
33697;BME280;20031;43.416;23.232;2024-03-07T01:42:40;99905.34;;;7.33;93.70
33697;BME280;20031;43.416;23.232;2024-03-07T01:45:05;99897.72;;;7.31;94.00
33697;BME280;20031;43.416;23.232;2024-03-07T01:47:33;99891.97;;;7.28;93.83
33697;BME280;20031;43.416;23.232;2024-03-07T01:49:58;99902.63;;;7.25;94.18
33697;BME280;20031;43.416;23.232;2024-03-07T01:52:24;99889.00;;;7.23;94.27
33697;BME280;20031;43.416;23.232;2024-03-07T01:54:50;99900.19;;;7.23;93.94
33697;BME280;20031;43.416;23.232;2024-03-07T01:57:16;99901.69;;;7.26;94.51
33697;BME280;20031;43.416;23.232;2024-03-07T01:59:44;99896.22;;;7.29;94.49
33697;BME280;20031;43.416;23.232;2024-03-07T02:02:10;99890.88;;;7.30;94.23
33697;BME280;20031;43.416;23.232;2024-03-07T02:04:35;99894.31;;;7.31;94.67
33697;BME280;20031;43.416;23.232;2024-03-07T02:07:01;99890.09;;;7.30;94.61
33697;BME280;20031;43.416;23.232;2024-03-07T02:09:26;99893.34;;;7.32;94.66
33697;BME280;20031;43.416;23.232;2024-03-07T02:11:51;99888.16;;;7.32;94.83
33697;BME280;20031;43.416;23.232;2024-03-07T02:14:17;99885.56;;;7.32;94.82
33697;BME280;20031;43.416;23.232;2024-03-07T02:16:43;99887.34;;;7.31;94.68
33697;BME280;20031;43.416;23.232;2024-03-07T02:19:14;99893.34;;;7.32;94.97
33697;BME280;20031;43.416;23.232;2024-03-07T02:21:40;99883.66;;;7.34;94.86
33697;BME280;20031;43.416;23.232;2024-03-07T02:24:06;99888.69;;;7.35;94.53
33697;BME280;20031;43.416;23.232;2024-03-07T02:26:31;99888.84;;;7.34;94.80
33697;BME280;20031;43.416;23.232;2024-03-07T02:28:57;99889.00;;;7.32;94.62
33697;BME280;20031;43.416;23.232;2024-03-07T02:31:22;99896.75;;;7.32;94.83
33697;BME280;20031;43.416;23.232;2024-03-07T02:34:01;99890.88;;;7.30;94.73
33697;BME280;20031;43.416;23.232;2024-03-07T02:36:27;99895.25;;;7.30;95.05
33697;BME280;20031;43.416;23.232;2024-03-07T02:38:53;99903.03;;;7.30;94.87
33697;BME280;20031;43.416;23.232;2024-03-07T02:41:18;99901.38;;;7.29;95.05
33697;BME280;20031;43.416;23.232;2024-03-07T02:43:43;99899.88;;;7.26;95.00
33697;BME280;20031;43.416;23.232;2024-03-07T02:46:09;99900.72;;;7.27;94.97
33697;BME280;20031;43.416;23.232;2024-03-07T02:48:37;99905.06;;;7.26;94.94
33697;BME280;20031;43.416;23.232;2024-03-07T02:51:03;99902.63;;;7.25;94.75
33697;BME280;20031;43.416;23.232;2024-03-07T02:53:31;99900.19;;;7.23;94.76
33697;BME280;20031;43.416;23.232;2024-03-07T02:55:58;99901.81;;;7.24;94.70
33697;BME280;20031;43.416;23.232;2024-03-07T02:58:24;99901.97;;;7.23;94.93
33697;BME280;20031;43.416;23.232;2024-03-07T03:00:57;99910.69;;;7.22;94.63
33697;BME280;20031;43.416;23.232;2024-03-07T03:03:22;99906.72;;;7.18;94.84
33697;BME280;20031;43.416;23.232;2024-03-07T03:05:48;99908.50;;;7.17;94.82
33697;BME280;20031;43.416;23.232;2024-03-07T03:08:13;99906.72;;;7.18;95.33
33697;BME280;20031;43.416;23.232;2024-03-07T03:10:39;99913.69;;;7.17;95.40
33697;BME280;20031;43.416;23.232;2024-03-07T03:13:05;99916.28;;;7.17;95.18
33697;BME280;20031;43.416;23.232;2024-03-07T03:15:30;99905.41;;;7.14;95.37
33697;BME280;20031;43.416;23.232;2024-03-07T03:17:56;99921.31;;;7.19;95.21
33697;BME280;20031;43.416;23.232;2024-03-07T03:20:25;99914.50;;;7.18;95.55
33697;BME280;20031;43.416;23.232;2024-03-07T03:22:54;99914.34;;;7.19;95.14
33697;BME280;20031;43.416;23.232;2024-03-07T03:25:21;99922.00;;;7.21;95.37
33697;BME280;20031;43.416;23.232;2024-03-07T03:27:47;99919.44;;;7.21;95.65
33697;BME280;20031;43.416;23.232;2024-03-07T03:30:13;99914.25;;;7.21;95.52
33697;BME280;20031;43.416;23.232;2024-03-07T03:32:39;99919.53;;;7.19;95.55
33697;BME280;20031;43.416;23.232;2024-03-07T03:35:06;99916.16;;;7.19;95.54
33697;BME280;20031;43.416;23.232;2024-03-07T03:37:32;99908.38;;;7.19;95.64
33697;BME280;20031;43.416;23.232;2024-03-07T03:39:58;99901.16;;;7.22;95.53
33697;BME280;20031;43.416;23.232;2024-03-07T03:42:24;99902.63;;;7.25;95.93
33697;BME280;20031;43.416;23.232;2024-03-07T03:44:49;99901.69;;;7.26;95.94
33697;BME280;20031;43.416;23.232;2024-03-07T03:47:14;99898.13;;;7.27;95.71
33697;BME280;20031;43.416;23.232;2024-03-07T03:49:40;99897.31;;;7.26;95.34
33697;BME280;20031;43.416;23.232;2024-03-07T03:52:05;99900.72;;;7.27;95.53
33697;BME280;20031;43.416;23.232;2024-03-07T03:54:31;99909.44;;;7.26;95.37
33697;BME280;20031;43.416;23.232;2024-03-07T03:56:56;99906.06;;;7.25;95.53
33697;BME280;20031;43.416;23.232;2024-03-07T03:59:24;99912.19;;;7.24;95.48
33697;BME280;20031;43.416;23.232;2024-03-07T04:01:49;99914.91;;;7.23;95.49
33697;BME280;20031;43.416;23.232;2024-03-07T04:04:14;99914.91;;;7.23;95.91
33697;BME280;20031;43.416;23.232;2024-03-07T04:06:40;99917.66;;;7.21;95.71
33697;BME280;20031;43.416;23.232;2024-03-07T04:09:05;99914.34;;;7.19;95.67
33697;BME280;20031;43.416;23.232;2024-03-07T04:11:31;99917.94;;;7.18;95.91
33697;BME280;20031;43.416;23.232;2024-03-07T04:13:56;99920.50;;;7.18;95.85
33697;BME280;20031;43.416;23.232;2024-03-07T04:16:22;99919.53;;;7.19;95.76
33697;BME280;20031;43.416;23.232;2024-03-07T04:18:48;99916.00;;;7.20;95.71
33697;BME280;20031;43.416;23.232;2024-03-07T04:21:13;99922.00;;;7.21;95.85
33697;BME280;20031;43.416;23.232;2024-03-07T04:23:42;99921.31;;;7.19;95.98
33697;BME280;20031;43.416;23.232;2024-03-07T04:26:08;99918.06;;;7.17;96.21
33697;BME280;20031;43.416;23.232;2024-03-07T04:28:34;99915.47;;;7.17;96.15
33697;BME280;20031;43.416;23.232;2024-03-07T04:30:59;99926.78;;;7.16;95.80
33697;BME280;20031;43.416;23.232;2024-03-07T04:33:25;99924.19;;;7.16;96.25
33697;BME280;20031;43.416;23.232;2024-03-07T04:35:50;99919.31;;;7.13;96.31
33697;BME280;20031;43.416;23.232;2024-03-07T04:38:17;99915.75;;;7.14;96.09
33697;BME280;20031;43.416;23.232;2024-03-07T04:40:43;99917.38;;;7.15;95.72
33697;BME280;20031;43.416;23.232;2024-03-07T04:43:08;99904.84;;;7.10;95.93
33697;BME280;20031;43.416;23.232;2024-03-07T04:45:34;99909.22;;;7.10;96.03
33697;BME280;20031;43.416;23.232;2024-03-07T04:47:59;99901.75;;;7.07;95.60
33697;BME280;20031;43.416;23.232;2024-03-07T04:50:25;99898.31;;;7.07;96.10
33697;BME280;20031;43.416;23.232;2024-03-07T04:52:51;99902.69;;;7.06;96.34
33697;BME280;20031;43.416;23.232;2024-03-07T04:55:17;99902.69;;;7.06;96.48
33697;BME280;20031;43.416;23.232;2024-03-07T04:57:43;99907.34;;;7.03;95.95
33697;BME280;20031;43.416;23.232;2024-03-07T05:00:11;99903.91;;;7.02;96.55
33697;BME280;20031;43.416;23.232;2024-03-07T05:02:43;99909.25;;;7.01;96.35
33697;BME280;20031;43.416;23.232;2024-03-07T05:05:09;99916.34;;;6.99;96.12
33697;BME280;20031;43.416;23.232;2024-03-07T05:07:35;99925.06;;;6.98;96.34
33697;BME280;20031;43.416;23.232;2024-03-07T05:10:04;99931.03;;;6.98;96.21
33697;BME280;20031;43.416;23.232;2024-03-07T05:12:30;99937.31;;;6.96;96.19
33697;BME280;20031;43.416;23.232;2024-03-07T05:14:56;99937.31;;;6.96;96.04
33697;BME280;20031;43.416;23.232;2024-03-07T05:17:21;99940.06;;;6.94;96.14
33697;BME280;20031;43.416;23.232;2024-03-07T05:19:47;99943.44;;;6.95;95.99
33697;BME280;20031;43.416;23.232;2024-03-07T05:22:14;99940.84;;;6.95;96.28
33697;BME280;20031;43.416;23.232;2024-03-07T05:24:41;99933.25;;;6.93;96.65
33697;BME280;20031;43.416;23.232;2024-03-07T05:27:08;99940.59;;;6.98;96.90
33697;BME280;20031;43.416;23.232;2024-03-07T05:29:37;99934.75;;;6.96;96.24
33697;BME280;20031;43.416;23.232;2024-03-07T05:32:20;99941.81;;;6.94;96.27
33697;BME280;20031;43.416;23.232;2024-03-07T05:34:46;99943.72;;;6.92;96.32
33697;BME280;20031;43.416;23.232;2024-03-07T05:37:12;99943.72;;;6.92;96.49
33697;BME280;20031;43.416;23.232;2024-03-07T05:39:38;99941.16;;;6.92;96.57
33697;BME280;20031;43.416;23.232;2024-03-07T05:42:04;99947.13;;;6.92;96.36
33697;BME280;20031;43.416;23.232;2024-03-07T05:44:32;99947.13;;;6.92;96.37
33697;BME280;20031;43.416;23.232;2024-03-07T05:46:57;99951.34;;;6.93;96.49
33697;BME280;20031;43.416;23.232;2024-03-07T05:49:22;99959.13;;;6.93;96.48
33697;BME280;20031;43.416;23.232;2024-03-07T05:51:48;99965.09;;;6.94;96.17
33697;BME280;20031;43.416;23.232;2024-03-07T05:54:13;99970.28;;;6.94;96.94
33697;BME280;20031;43.416;23.232;2024-03-07T05:56:40;99963.22;;;6.96;96.50
33697;BME280;20031;43.416;23.232;2024-03-07T05:59:06;99963.88;;;6.98;96.44
33697;BME280;20031;43.416;23.232;2024-03-07T06:01:38;99970.00;;;6.97;96.48
33697;BME280;20031;43.416;23.232;2024-03-07T06:04:05;99969.06;;;6.98;96.63
33697;BME280;20031;43.416;23.232;2024-03-07T06:06:34;99965.09;;;6.94;96.94
33697;BME280;20031;43.416;23.232;2024-03-07T06:09:01;99972.72;;;6.95;96.80
33697;BME280;20031;43.416;23.232;2024-03-07T06:11:38;99969.19;;;6.96;96.57
33697;BME280;20031;43.416;23.232;2024-03-07T06:14:05;99971.78;;;6.96;96.52
33697;BME280;20031;43.416;23.232;2024-03-07T06:16:32;99977.09;;;6.95;96.40
33697;BME280;20031;43.416;23.232;2024-03-07T06:19:02;99974.38;;;6.96;96.64
33697;BME280;20031;43.416;23.232;2024-03-07T06:21:28;99976.97;;;6.96;96.67
33697;BME280;20031;43.416;23.232;2024-03-07T06:23:56;99976.69;;;6.99;97.05
33697;BME280;20031;43.416;23.232;2024-03-07T06:26:35;99987.31;;;6.96;96.76
33697;BME280;20031;43.416;23.232;2024-03-07T06:29:10;99987.19;;;6.98;96.29
33697;BME280;20031;43.416;23.232;2024-03-07T06:31:39;99988.25;;;6.95;96.93
33697;BME280;20031;43.416;23.232;2024-03-07T06:34:05;99990.72;;;6.97;96.43
33697;BME280;20031;43.416;23.232;2024-03-07T06:36:32;99991.56;;;6.97;97.32
33697;BME280;20031;43.416;23.232;2024-03-07T06:38:58;99996.72;;;6.97;96.54
33697;BME280;20031;43.416;23.232;2024-03-07T06:41:23;99994.81;;;6.99;97.31
33697;BME280;20031;43.416;23.232;2024-03-07T06:43:50;99997.81;;;7.04;96.74
33697;BME280;20031;43.416;23.232;2024-03-07T06:46:15;99991.00;;;7.03;96.54
33697;BME280;20031;43.416;23.232;2024-03-07T06:48:42;99993.44;;;7.05;96.89
33697;BME280;20031;43.416;23.232;2024-03-07T06:51:07;99995.47;;;7.10;96.79
33697;BME280;20031;43.416;23.232;2024-03-07T06:53:33;100003.81;;;7.14;96.55
33697;BME280;20031;43.416;23.232;2024-03-07T06:55:59;100005.81;;;7.20;96.99
33697;BME280;20031;43.416;23.232;2024-03-07T06:58:24;100010.59;;;7.24;96.66
33697;BME280;20031;43.416;23.232;2024-03-07T07:00:51;100014.97;;;7.24;96.56
33697;BME280;20031;43.416;23.232;2024-03-07T07:03:19;100013.03;;;7.26;96.88
33697;BME280;20031;43.416;23.232;2024-03-07T07:05:45;100009.88;;;7.32;97.15
33697;BME280;20031;43.416;23.232;2024-03-07T07:08:11;100016.16;;;7.39;96.79
33697;BME280;20031;43.416;23.232;2024-03-07T07:10:38;100014.91;;;7.43;96.88
33697;BME280;20031;43.416;23.232;2024-03-07T07:13:06;100011.75;;;7.49;96.92
33697;BME280;20031;43.416;23.232;2024-03-07T07:15:31;100010.91;;;7.58;97.07
33697;BME280;20031;43.416;23.232;2024-03-07T07:17:56;100016.50;;;7.62;96.70
33697;BME280;20031;43.416;23.232;2024-03-07T07:20:22;100016.22;;;7.65;96.43
33697;BME280;20031;43.416;23.232;2024-03-07T07:22:49;100006.53;;;7.67;96.55
33697;BME280;20031;43.416;23.232;2024-03-07T07:25:16;100015.94;;;7.68;95.97
33697;BME280;20031;43.416;23.232;2024-03-07T07:27:44;100017.88;;;7.66;96.29
33697;BME280;20031;43.416;23.232;2024-03-07T07:30:11;100020.03;;;7.71;95.94
33697;BME280;20031;43.416;23.232;2024-03-07T07:32:37;100027.09;;;7.78;95.85
33697;BME280;20031;43.416;23.232;2024-03-07T07:35:03;100025.72;;;7.74;95.91
33697;BME280;20031;43.416;23.232;2024-03-07T07:37:30;100021.53;;;7.73;95.61
33697;BME280;20031;43.416;23.232;2024-03-07T07:39:56;100021.78;;;7.70;95.78
33697;BME280;20031;43.416;23.232;2024-03-07T07:42:21;100030.69;;;7.68;95.21
33697;BME280;20031;43.416;23.232;2024-03-07T07:44:46;100025.91;;;7.63;95.42
33697;BME280;20031;43.416;23.232;2024-03-07T07:47:12;100030.13;;;7.64;95.03
33697;BME280;20031;43.416;23.232;2024-03-07T07:49:38;100027.41;;;7.66;95.37
33697;BME280;20031;43.416;23.232;2024-03-07T07:52:05;100026.31;;;7.68;95.21
33697;BME280;20031;43.416;23.232;2024-03-07T07:54:31;100024.38;;;7.70;95.25
33697;BME280;20031;43.416;23.232;2024-03-07T07:56:57;100025.72;;;7.74;94.94
33697;BME280;20031;43.416;23.232;2024-03-07T07:59:22;100026.28;;;7.78;94.90
33697;BME280;20031;43.416;23.232;2024-03-07T08:01:47;100039.53;;;7.75;94.64
33697;BME280;20031;43.416;23.232;2024-03-07T08:04:13;100037.09;;;7.73;94.33
33697;BME280;20031;43.416;23.232;2024-03-07T08:06:39;100042.41;;;7.72;94.57
33697;BME280;20031;43.416;23.232;2024-03-07T08:09:04;100045.38;;;7.67;94.28
33697;BME280;20031;43.416;23.232;2024-03-07T08:11:35;100040.34;;;7.66;94.24
33697;BME280;20031;43.416;23.232;2024-03-07T08:14:02;100034.06;;;7.68;93.69
33697;BME280;20031;43.416;23.232;2024-03-07T08:16:28;100035.03;;;7.67;93.89
33697;BME280;20031;43.416;23.232;2024-03-07T08:18:53;100036.38;;;7.71;94.20
33697;BME280;20031;43.416;23.232;2024-03-07T08:21:19;100035.72;;;7.69;93.25
33697;BME280;20031;43.416;23.232;2024-03-07T08:23:44;100037.47;;;7.69;93.46
33697;BME280;20031;43.416;23.232;2024-03-07T08:26:11;100043.22;;;7.72;93.64
33697;BME280;20031;43.416;23.232;2024-03-07T08:28:37;100042.50;;;7.70;93.41
33697;BME280;20031;43.416;23.232;2024-03-07T08:31:03;100045.38;;;7.67;93.23
33697;BME280;20031;43.416;23.232;2024-03-07T08:33:29;100052.78;;;7.72;93.07
33697;BME280;20031;43.416;23.232;2024-03-07T08:35:58;100057.38;;;7.78;93.07
33697;BME280;20031;43.416;23.232;2024-03-07T08:38:24;100060.41;;;7.73;92.68
33697;BME280;20031;43.416;23.232;2024-03-07T08:40:50;100075.97;;;7.73;92.79
33697;BME280;20031;43.416;23.232;2024-03-07T08:43:15;100065.16;;;7.78;93.00
33697;BME280;20031;43.416;23.232;2024-03-07T08:45:41;100069.66;;;7.76;92.82
33697;BME280;20031;43.416;23.232;2024-03-07T08:48:06;100069.13;;;7.72;92.35
33697;BME280;20031;43.416;23.232;2024-03-07T08:50:34;100075.25;;;7.71;92.26
33697;BME280;20031;43.416;23.232;2024-03-07T08:53:03;100081.94;;;7.74;92.52
33697;BME280;20031;43.416;23.232;2024-03-07T08:55:31;100090.94;;;7.79;92.44
33697;BME280;20031;43.416;23.232;2024-03-07T08:57:57;100092.84;;;7.77;91.91
33697;BME280;20031;43.416;23.232;2024-03-07T09:00:22;100103.22;;;7.77;91.55
33697;BME280;20031;43.416;23.232;2024-03-07T09:02:59;100102.41;;;7.77;92.20
33697;BME280;20031;43.416;23.232;2024-03-07T09:05:25;100109.09;;;7.79;91.72
33697;BME280;20031;43.416;23.232;2024-03-07T09:07:52;100105.41;;;7.82;91.64
33697;BME280;20031;43.416;23.232;2024-03-07T09:10:18;100108.00;;;7.82;91.51
33697;BME280;20031;43.416;23.232;2024-03-07T09:12:44;100103.47;;;7.84;91.30
33697;BME280;20031;43.416;23.232;2024-03-07T09:15:11;100109.75;;;7.81;90.81
33697;BME280;20031;43.416;23.232;2024-03-07T09:17:37;100114.94;;;7.81;90.99
33697;BME280;20031;43.416;23.232;2024-03-07T09:20:06;100116.97;;;7.87;91.00
33697;BME280;20031;43.416;23.232;2024-03-07T09:22:33;100118.31;;;7.91;90.91
33697;BME280;20031;43.416;23.232;2024-03-07T09:24:59;100125.00;;;8.03;90.70
33697;BME280;20031;43.416;23.232;2024-03-07T09:27:25;100135.63;;;8.00;89.98
33697;BME280;20031;43.416;23.232;2024-03-07T09:29:50;100135.25;;;7.95;90.28
33697;BME280;20031;43.416;23.232;2024-03-07T09:32:16;100147.25;;;7.96;89.94
33697;BME280;20031;43.416;23.232;2024-03-07T09:34:42;100147.94;;;7.98;89.67
33697;BME280;20031;43.416;23.232;2024-03-07T09:37:08;100143.41;;;8.00;89.78
33697;BME280;20031;43.416;23.232;2024-03-07T09:39:33;100152.56;;;8.04;89.47
33697;BME280;20031;43.416;23.232;2024-03-07T09:42:03;100151.59;;;8.05;89.24
33697;BME280;20031;43.416;23.232;2024-03-07T09:44:36;100141.66;;;8.01;89.27
33697;BME280;20031;43.416;23.232;2024-03-07T09:47:01;100143.03;;;7.95;88.57
33697;BME280;20031;43.416;23.232;2024-03-07T09:49:28;100149.06;;;7.86;88.30
33697;BME280;20031;43.416;23.232;2024-03-07T09:51:55;100157.91;;;7.84;88.91
33697;BME280;20031;43.416;23.232;2024-03-07T09:54:24;100158.59;;;7.86;88.33
33697;BME280;20031;43.416;23.232;2024-03-07T09:56:53;100148.91;;;7.88;88.34
33697;BME280;20031;43.416;23.232;2024-03-07T09:59:19;100149.84;;;7.96;89.10
33697;BME280;20031;43.416;23.232;2024-03-07T10:01:50;100146.84;;;8.01;88.60
33697;BME280;20031;43.416;23.232;2024-03-07T10:04:19;100146.16;;;7.99;87.93
33697;BME280;20031;43.416;23.232;2024-03-07T10:06:49;100151.19;;;8.00;87.92
33697;BME280;20031;43.416;23.232;2024-03-07T10:09:18;100151.19;;;8.00;88.22
33697;BME280;20031;43.416;23.232;2024-03-07T10:11:55;100146.28;;;7.97;87.98
33697;BME280;20031;43.416;23.232;2024-03-07T10:14:21;100160.22;;;7.96;88.03
33697;BME280;20031;43.416;23.232;2024-03-07T10:16:46;100173.84;;;7.98;87.95
33697;BME280;20031;43.416;23.232;2024-03-07T10:19:12;100159.38;;;8.05;87.77
33697;BME280;20031;43.416;23.232;2024-03-07T10:21:40;100158.00;;;8.20;88.17
33697;BME280;20031;43.416;23.232;2024-03-07T10:24:09;100155.00;;;8.24;87.42
33697;BME280;20031;43.416;23.232;2024-03-07T10:26:39;100156.34;;;8.28;87.37
33697;BME280;20031;43.416;23.232;2024-03-07T10:29:05;100150.84;;;8.31;87.17
33697;BME280;20031;43.416;23.232;2024-03-07T10:31:31;100147.47;;;8.31;87.01
33697;BME280;20031;43.416;23.232;2024-03-07T10:34:01;100150.84;;;8.41;86.81
33697;BME280;20031;43.416;23.232;2024-03-07T10:36:31;100151.25;;;8.46;86.45
33697;BME280;20031;43.416;23.232;2024-03-07T10:39:00;100152.84;;;8.47;86.40
33697;BME280;20031;43.416;23.232;2024-03-07T10:41:49;100155.06;;;8.42;85.62
33697;BME280;20031;43.416;23.232;2024-03-07T10:44:24;100168.34;;;8.39;85.85
33697;BME280;20031;43.416;23.232;2024-03-07T10:46:55;100159.75;;;8.29;85.90
33697;BME280;20031;43.416;23.232;2024-03-07T10:49:25;100158.94;;;8.28;85.46
33697;BME280;20031;43.416;23.232;2024-03-07T10:52:09;100166.16;;;8.34;85.39
33697;BME280;20031;43.416;23.232;2024-03-07T10:54:48;100169.16;;;8.30;84.82
33697;BME280;20031;43.416;23.232;2024-03-07T10:57:35;100164.81;;;8.21;84.97
33697;BME280;20031;43.416;23.232;2024-03-07T11:00:04;100158.81;;;8.11;84.94
33697;BME280;20031;43.416;23.232;2024-03-07T11:02:49;100160.03;;;8.07;84.63
33697;BME280;20031;43.416;23.232;2024-03-07T11:05:18;100152.81;;;8.11;85.03
33697;BME280;20031;43.416;23.232;2024-03-07T11:07:44;100151.72;;;8.22;85.47
33697;BME280;20031;43.416;23.232;2024-03-07T11:10:10;100145.00;;;8.29;85.14
33697;BME280;20031;43.416;23.232;2024-03-07T11:12:38;100148.00;;;8.34;84.98
33697;BME280;20031;43.416;23.232;2024-03-07T11:15:06;100149.75;;;8.34;84.90
33697;BME280;20031;43.416;23.232;2024-03-07T11:17:41;100150.47;;;8.36;84.73
33697;BME280;20031;43.416;23.232;2024-03-07T11:20:27;100148.81;;;8.35;84.87
33697;BME280;20031;43.416;23.232;2024-03-07T11:22:58;100149.09;;;8.32;84.74
33697;BME280;20031;43.416;23.232;2024-03-07T11:25:26;100153.88;;;8.27;84.54
33697;BME280;20031;43.416;23.232;2024-03-07T11:27:55;100161.28;;;8.22;84.66
33697;BME280;20031;43.416;23.232;2024-03-07T11:30:21;100155.41;;;8.20;84.16
33697;BME280;20031;43.416;23.232;2024-03-07T11:32:48;100152.13;;;8.18;84.57
33697;BME280;20031;43.416;23.232;2024-03-07T11:35:15;100159.53;;;8.13;84.33
33697;BME280;20031;43.416;23.232;2024-03-07T11:37:42;100156.50;;;8.08;84.64
33697;BME280;20031;43.416;23.232;2024-03-07T11:42:47;100172.50;;;7.94;84.50
33697;BME280;20031;43.416;23.232;2024-03-07T11:45:13;100167.72;;;7.90;84.78
33697;BME280;20031;43.416;23.232;2024-03-07T11:47:52;100177.44;;;7.88;84.60
33697;BME280;20031;43.416;23.232;2024-03-07T11:50:47;100180.59;;;7.82;84.80
33697;BME280;20031;43.416;23.232;2024-03-07T11:53:12;100171.84;;;7.73;84.33
33697;BME280;20031;43.416;23.232;2024-03-07T11:55:39;100178.00;;;7.72;85.36
33697;BME280;20031;43.416;23.232;2024-03-07T11:58:18;100176.34;;;7.71;85.09
33697;BME280;20031;43.416;23.232;2024-03-07T12:00:47;100177.28;;;7.70;85.29
33697;BME280;20031;43.416;23.232;2024-03-07T12:03:14;100182.09;;;7.65;85.22
33697;BME280;20031;43.416;23.232;2024-03-07T12:05:40;100178.25;;;7.60;85.01
33697;BME280;20031;43.416;23.232;2024-03-07T12:08:07;100175.13;;;7.57;85.38
33697;BME280;20031;43.416;23.232;2024-03-07T12:10:32;100177.03;;;7.55;85.39
33697;BME280;20031;43.416;23.232;2024-03-07T12:12:59;100167.66;;;7.54;85.88
33697;BME280;20031;43.416;23.232;2024-03-07T12:15:27;100168.97;;;7.58;85.68
33697;BME280;20031;43.416;23.232;2024-03-07T12:17:53;100167.78;;;7.52;85.64
33697;BME280;20031;43.416;23.232;2024-03-07T12:20:19;100152.38;;;7.51;86.07
33697;BME280;20031;43.416;23.232;2024-03-07T12:22:55;100164.50;;;7.50;85.51
33697;BME280;20031;43.416;23.232;2024-03-07T12:25:21;100163.25;;;7.45;85.59
33697;BME280;20031;43.416;23.232;2024-03-07T12:28:10;100163.00;;;7.38;85.91
33697;BME280;20031;43.416;23.232;2024-03-07T12:30:53;100169.25;;;7.36;85.87
33697;BME280;20031;43.416;23.232;2024-03-07T12:33:20;100174.84;;;7.31;86.26
33697;BME280;20031;43.416;23.232;2024-03-07T12:35:47;100165.56;;;7.29;86.31
33697;BME280;20031;43.416;23.232;2024-03-07T12:38:15;100175.53;;;7.33;87.02
33697;BME280;20031;43.416;23.232;2024-03-07T12:40:45;100172.78;;;7.35;86.77
33697;BME280;20031;43.416;23.232;2024-03-07T12:43:19;100174.72;;;7.33;86.55
33697;BME280;20031;43.416;23.232;2024-03-07T12:45:47;100177.16;;;7.34;86.70
33697;BME280;20031;43.416;23.232;2024-03-07T12:48:13;100177.97;;;7.35;86.38
33697;BME280;20031;43.416;23.232;2024-03-07T12:50:40;100171.69;;;7.28;86.31
33697;BME280;20031;43.416;23.232;2024-03-07T12:53:06;100171.44;;;7.31;87.11
33697;BME280;20031;43.416;23.232;2024-03-07T12:55:38;100172.00;;;7.34;86.61
33697;BME280;20031;43.416;23.232;2024-03-07T12:58:09;100175.09;;;7.38;86.98
33697;BME280;20031;43.416;23.232;2024-03-07T13:00:37;100170.34;;;7.43;87.01